West Chester, Pennsylvania
Current Conditions -  °F | °C
As of 8:35 PM on Friday 19 Dec 2014 (Local Time) from KMQS Reporting Station
Scattered Clouds Scattered Clouds  
Wind Chill: 22°   Ceiling: Unl
Heat Index: 28°   Visibility: 10mi
Dew Point: 23°   Wind: 6mph
Humidity: 80%   Direction: 320°NW
Pressure: 30.18"   Gusts: NA
Location:  39.96°N, 75.6°W
Report Text: KMQS 200135Z AUTO 32005KT 10SM SCT032 M02/M05 A3018 RMK AO2
Loading
Personal Weather Stations






























Interactive Weather Map New forecast layout! Learn more

10-Day Weather Forecast

Advertisements
Track Severe Weather on mobile